Time;durP1;ratioP1;P1;durP2;ratioP2;P2;SDS_P1;SDS_P2;PMS_P1;PMS_P2;Temp;Humidity;BMP_temperature;BMP_pressure;BME280_temperature;BME280_humidity;BME280_pressure;Samples;Min_cycle;Max_cycle;Signal;HPM_P1;HPM_P2
2023/03/24 00:02:03;;;;;;;2.22;0.70;;;;;;;;;;5284430;28;20052;-70
2023/03/24 00:04:34;;;;;;;1.83;0.60;;;;;;;;;;5283278;28;20560;-70
2023/03/24 00:07:07;;;;;;;2.65;0.70;;;;;;;;;;5284555;28;20013;-70
2023/03/24 00:09:38;;;;;;;4.60;0.70;;;;;;;;;;5283959;28;20069;-70
2023/03/24 00:12:12;;;;;;;3.30;0.60;;;;;;;;;;5283526;28;20025;-70
2023/03/24 00:14:47;;;;;;;3.20;0.95;;;;;;;;;;5283761;28;20020;-70
2023/03/24 00:17:18;;;;;;;2.65;0.50;;;;;;;;;;5284405;28;20028;-70
2023/03/24 00:19:50;;;;;;;1.95;0.40;;;;;;;;;;5282312;28;20021;-70
2023/03/24 00:22:21;;;;;;;1.83;0.50;;;;;;;;;;5284036;28;20044;-70
2023/03/24 00:24:53;;;;;;;2.53;0.60;;;;;;;;;;5283226;28;20137;-70
2023/03/24 00:27:24;;;;;;;3.40;0.90;;;;;;;;;;5283325;28;20024;-70
2023/03/24 00:29:58;;;;;;;1.60;0.57;;;;;;;;;;5284124;28;20471;-71
2023/03/24 00:32:29;;;;;;;1.88;0.50;;;;;;;;;;5282757;28;20023;-70
2023/03/24 00:35:00;;;;;;;2.47;0.60;;;;;;;;;;5283923;28;20017;-70
2023/03/24 00:37:31;;;;;;;1.73;0.57;;;;;;;;;;5283393;28;20074;-70
2023/03/24 00:40:07;;;;;;;1.67;0.60;;;;;;;;;;5282893;28;20255;-70
2023/03/24 00:42:39;;;;;;;1.75;0.50;;;;;;;;;;5283189;28;20060;-70
2023/03/24 00:45:12;;;;;;;3.15;0.60;;;;;;;;;;5283648;28;20067;-70
2023/03/24 00:47:43;;;;;;;1.50;0.43;;;;;;;;;;5282242;28;20388;-70
2023/03/24 00:50:16;;;;;;;3.70;0.50;;;;;;;;;;5283377;28;20013;-70
2023/03/24 00:52:47;;;;;;;1.75;0.43;;;;;;;;;;5282070;28;20044;-70
2023/03/24 00:55:20;;;;;;;2.25;0.55;;;;;;;;;;5283504;28;20019;-70
2023/03/24 00:57:51;;;;;;;3.33;0.47;;;;;;;;;;5283034;28;20021;-70
2023/03/24 01:00:24;;;;;;;2.05;0.50;;;;;;;;;;5282370;28;20451;-70
2023/03/24 01:02:55;;;;;;;1.15;0.40;;;;;;;;;;5282981;28;20032;-70
2023/03/24 01:05:28;;;;;;;2.22;0.60;;;;;;;;;;5282587;28;20095;-71
2023/03/24 01:08:01;;;;;;;1.63;0.52;;;;;;;;;;5282577;28;20039;-70
2023/03/24 01:10:48;;;;;;;1.13;0.50;;;;;;;;;;5282663;28;20374;-70
2023/03/24 01:13:21;;;;;;;1.33;0.43;;;;;;;;;;5282746;28;20020;-70
2023/03/24 01:15:52;;;;;;;2.17;0.43;;;;;;;;;;5282162;28;20410;-71
2023/03/24 01:18:24;;;;;;;2.08;0.47;;;;;;;;;;5282771;28;20016;-71
2023/03/24 01:20:55;;;;;;;1.73;0.63;;;;;;;;;;5282297;28;20066;-70
2023/03/24 01:23:29;;;;;;;1.80;0.60;;;;;;;;;;5282473;28;20036;-71
2023/03/24 01:26:04;;;;;;;0.82;0.40;;;;;;;;;;5282705;28;20267;-69
2023/03/24 01:28:39;;;;;;;0.90;0.47;;;;;;;;;;5281357;28;20028;-69
2023/03/24 01:31:11;;;;;;;1.15;0.47;;;;;;;;;;5282619;28;20091;-70
2023/03/24 01:33:42;;;;;;;1.77;0.47;;;;;;;;;;5281461;28;20107;-69
2023/03/24 01:36:13;;;;;;;1.60;0.50;;;;;;;;;;5281963;28;20417;-70
2023/03/24 01:38:44;;;;;;;2.15;0.50;;;;;;;;;;5282059;28;20262;-70
2023/03/24 01:41:16;;;;;;;2.10;0.50;;;;;;;;;;5282370;28;20044;-70
2023/03/24 01:43:47;;;;;;;1.80;0.50;;;;;;;;;;5281121;28;20410;-69
2023/03/24 01:46:19;;;;;;;1.05;0.50;;;;;;;;;;5282469;28;20021;-70
2023/03/24 01:49:00;;;;;;;1.58;0.40;;;;;;;;;;5282277;28;20482;-70
2023/03/24 01:51:35;;;;;;;1.90;0.50;;;;;;;;;;5281452;28;20040;-70
2023/03/24 01:54:09;;;;;;;2.10;0.60;;;;;;;;;;5282325;28;20017;-70
2023/03/24 01:56:42;;;;;;;2.53;0.50;;;;;;;;;;5280977;28;20021;-70
2023/03/24 01:59:16;;;;;;;1.38;0.50;;;;;;;;;;5282209;28;20020;-70
2023/03/24 02:01:48;;;;;;;1.27;0.50;;;;;;;;;;5281925;28;20383;-70
2023/03/24 02:04:19;;;;;;;2.13;0.50;;;;;;;;;;5281328;28;20027;-70
2023/03/24 02:06:52;;;;;;;2.72;0.50;;;;;;;;;;5282069;28;20519;-70
2023/03/24 02:09:23;;;;;;;1.42;0.50;;;;;;;;;;5281888;28;20027;-71
2023/03/24 02:11:54;;;;;;;1.10;0.50;;;;;;;;;;5281352;28;20371;-70
2023/03/24 02:14:25;;;;;;;1.50;0.60;;;;;;;;;;5282160;28;20032;-71
2023/03/24 02:17:03;;;;;;;1.00;0.50;;;;;;;;;;5282444;28;20043;-70
2023/03/24 02:19:53;;;;;;;2.28;0.60;;;;;;;;;;5280811;28;20035;-70
2023/03/24 02:22:45;;;;;;;2.00;0.60;;;;;;;;;;5281481;28;20041;-70
2023/03/24 02:25:35;;;;;;;2.58;0.60;;;;;;;;;;5270172;28;20040;-70
2023/03/24 02:28:09;;;;;;;2.35;0.50;;;;;;;;;;5282018;28;20016;-70
2023/03/24 02:30:43;;;;;;;3.13;0.60;;;;;;;;;;5281438;28;20037;-70
2023/03/24 02:33:23;;;;;;;1.55;0.50;;;;;;;;;;5281227;28;20025;-70
2023/03/24 02:36:21;;;;;;;1.45;0.70;;;;;;;;;;5281828;28;20029;-70
2023/03/24 02:39:11;;;;;;;1.38;0.50;;;;;;;;;;5281112;28;20025;-69
2023/03/24 02:42:00;;;;;;;1.95;0.60;;;;;;;;;;5281478;28;20391;-69
2023/03/24 02:44:32;;;;;;;1.25;0.50;;;;;;;;;;5284181;28;20031;-69
2023/03/24 02:47:15;;;;;;;2.00;0.60;;;;;;;;;;5285217;28;20476;-70
2023/03/24 02:49:56;;;;;;;2.47;0.80;;;;;;;;;;5285521;28;20365;-69
2023/03/24 02:52:33;;;;;;;1.58;0.57;;;;;;;;;;5284340;28;20174;-69
2023/03/24 02:55:15;;;;;;;1.92;0.50;;;;;;;;;;5285808;28;20020;-69
2023/03/24 02:57:56;;;;;;;2.08;0.75;;;;;;;;;;5285064;28;20066;-70
2023/03/24 03:00:31;;;;;;;2.33;0.60;;;;;;;;;;5284419;28;20364;-70
2023/03/24 03:03:08;;;;;;;1.55;0.57;;;;;;;;;;5285851;28;20033;-70
2023/03/24 03:05:51;;;;;;;1.38;0.70;;;;;;;;;;5285083;28;20107;-70
2023/03/24 03:08:24;;;;;;;2.00;0.60;;;;;;;;;;5284557;28;20039;-69
2023/03/24 03:10:56;;;;;;;0.95;0.40;;;;;;;;;;5285690;28;20070;-70
2023/03/24 03:13:33;;;;;;;1.05;0.38;;;;;;;;;;5284016;28;20032;-70
2023/03/24 03:16:07;;;;;;;2.22;0.38;;;;;;;;;;5285206;28;20070;-69
2023/03/24 03:18:40;;;;;;;1.35;0.43;;;;;;;;;;5284789;28;20493;-70
2023/03/24 03:21:13;;;;;;;2.03;0.50;;;;;;;;;;5284436;28;20062;-71
2023/03/24 03:23:48;;;;;;;2.75;0.40;;;;;;;;;;5284118;28;20024;-70
2023/03/24 03:26:25;;;;;;;1.33;0.30;;;;;;;;;;5284913;28;20028;-70
2023/03/24 03:28:59;;;;;;;1.00;0.30;;;;;;;;;;5284404;28;20021;-69
2023/03/24 03:31:34;;;;;;;1.55;0.30;;;;;;;;;;5284381;28;20020;-70
2023/03/24 03:34:24;;;;;;;1.48;0.32;;;;;;;;;;5284754;28;20024;-70
2023/03/24 03:36:55;;;;;;;1.67;0.20;;;;;;;;;;5283881;28;20028;-69
2023/03/24 03:39:28;;;;;;;0.88;0.20;;;;;;;;;;5284301;28;20410;-69
2023/03/24 03:41:59;;;;;;;1.10;0.20;;;;;;;;;;5284295;28;20043;-69
2023/03/24 03:44:30;;;;;;;1.73;0.20;;;;;;;;;;5284358;28;20048;-70
2023/03/24 03:47:02;;;;;;;1.13;0.20;;;;;;;;;;5284887;28;20012;-69
2023/03/24 03:49:35;;;;;;;0.60;0.20;;;;;;;;;;5283451;28;20032;-70
2023/03/24 03:52:06;;;;;;;1.58;0.35;;;;;;;;;;5284550;28;20056;-69
2023/03/24 03:54:40;;;;;;;3.17;0.88;;;;;;;;;;5283358;28;20131;-70
2023/03/24 03:57:12;;;;;;;2.60;0.93;;;;;;;;;;5283793;28;20029;-69
2023/03/24 03:59:43;;;;;;;3.92;0.75;;;;;;;;;;5284013;28;20028;-70
2023/03/24 04:02:20;;;;;;;3.08;0.70;;;;;;;;;;5284283;28;20036;-70
2023/03/24 04:05:03;;;;;;;3.90;0.80;;;;;;;;;;5283478;28;20111;-70
2023/03/24 04:07:39;;;;;;;2.45;0.60;;;;;;;;;;5283965;28;20024;-70
2023/03/24 04:10:28;;;;;;;2.35;0.50;;;;;;;;;;5283486;28;20019;-70
2023/03/24 04:13:22;;;;;;;2.75;0.60;;;;;;;;;;5284070;28;20028;-70
2023/03/24 04:15:58;;;;;;;4.95;0.60;;;;;;;;;;5280682;28;20474;-70
2023/03/24 04:18:32;;;;;;;4.05;0.60;;;;;;;;;;5282852;28;20460;-70
2023/03/24 04:21:06;;;;;;;4.45;0.70;;;;;;;;;;5284327;28;20036;-70
2023/03/24 04:23:45;;;;;;;3.83;0.60;;;;;;;;;;5283466;28;20090;-70
2023/03/24 04:26:16;;;;;;;3.53;0.55;;;;;;;;;;5283974;28;20013;-71
2023/03/24 04:28:51;;;;;;;4.10;0.60;;;;;;;;;;5283266;28;20356;-70
2023/03/24 04:31:28;;;;;;;3.17;0.30;;;;;;;;;;5282527;28;20270;-70
2023/03/24 04:34:03;;;;;;;5.38;0.55;;;;;;;;;;5283986;28;20021;-71
2023/03/24 04:36:49;;;;;;;5.75;0.50;;;;;;;;;;5283336;28;20039;-71
2023/03/24 04:39:24;;;;;;;4.68;0.40;;;;;;;;;;5282673;28;20028;-70
2023/03/24 04:41:57;;;;;;;3.45;0.40;;;;;;;;;;5283699;28;20031;-70
2023/03/24 04:44:29;;;;;;;3.33;0.43;;;;;;;;;;5282989;28;20028;-70
2023/03/24 04:47:01;;;;;;;2.13;0.30;;;;;;;;;;5282979;28;20413;-70
2023/03/24 04:49:35;;;;;;;4.30;0.40;;;;;;;;;;5283046;28;20485;-70
2023/03/24 04:52:07;;;;;;;4.35;0.50;;;;;;;;;;5282557;28;20055;-71
2023/03/24 04:54:38;;;;;;;3.58;0.60;;;;;;;;;;5283033;28;20012;-70
2023/03/24 04:57:09;;;;;;;5.35;0.50;;;;;;;;;;5283419;28;20060;-70
2023/03/24 04:59:41;;;;;;;4.55;0.50;;;;;;;;;;5282160;28;20017;-70
2023/03/24 05:02:13;;;;;;;3.15;0.50;;;;;;;;;;5283096;28;20016;-71
2023/03/24 05:04:44;;;;;;;5.95;0.95;;;;;;;;;;5282604;28;20039;-71
2023/03/24 05:07:16;;;;;;;3.83;0.82;;;;;;;;;;5282331;28;20074;-71
2023/03/24 05:09:47;;;;;;;5.15;0.60;;;;;;;;;;5282706;28;20024;-71
2023/03/24 05:12:18;;;;;;;3.17;0.70;;;;;;;;;;5283050;28;20066;-71
2023/03/24 05:14:49;;;;;;;4.38;1.00;;;;;;;;;;5281846;28;20036;-71
2023/03/24 05:17:21;;;;;;;5.50;0.70;;;;;;;;;;5282667;28;20056;-70
2023/03/24 05:19:52;;;;;;;5.65;0.68;;;;;;;;;;5282397;28;20016;-70
2023/03/24 05:22:23;;;;;;;4.60;0.55;;;;;;;;;;5281723;28;20024;-70
2023/03/24 05:24:54;;;;;;;3.28;0.65;;;;;;;;;;5282380;28;20028;-71
2023/03/24 05:27:25;;;;;;;4.15;0.57;;;;;;;;;;5281224;28;20021;-71
2023/03/24 05:29:57;;;;;;;4.43;0.73;;;;;;;;;;5282348;28;20026;-71
2023/03/24 05:32:28;;;;;;;5.65;0.77;;;;;;;;;;5282115;28;20012;-71
2023/03/24 05:34:59;;;;;;;3.42;0.57;;;;;;;;;;5281590;28;20094;-71
2023/03/24 05:37:31;;;;;;;5.57;1.20;;;;;;;;;;5281468;28;20044;-70
2023/03/24 05:40:02;;;;;;;6.57;0.63;;;;;;;;;;5282239;28;20467;-71
2023/03/24 05:42:33;;;;;;;5.25;0.60;;;;;;;;;;5281194;28;20058;-71
2023/03/24 05:45:05;;;;;;;5.28;0.63;;;;;;;;;;5282680;28;20086;-70
2023/03/24 05:47:36;;;;;;;5.95;0.70;;;;;;;;;;5281838;28;20059;-71
2023/03/24 05:50:08;;;;;;;5.57;0.75;;;;;;;;;;5281632;28;20024;-71
2023/03/24 05:52:40;;;;;;;7.25;0.70;;;;;;;;;;5281433;28;20048;-71
2023/03/24 05:55:11;;;;;;;8.27;0.88;;;;;;;;;;5281538;27;20040;-71
2023/03/24 05:57:42;;;;;;;7.85;0.68;;;;;;;;;;5281789;28;20021;-71
2023/03/24 06:00:16;;;;;;;7.25;0.65;;;;;;;;;;5282153;28;20044;-70
2023/03/24 06:02:47;;;;;;;3.53;0.60;;;;;;;;;;5280786;28;20020;-71
2023/03/24 06:05:19;;;;;;;6.53;0.68;;;;;;;;;;5281973;28;20023;-70
2023/03/24 06:07:50;;;;;;;6.32;0.93;;;;;;;;;;5281738;28;20095;-71
2023/03/24 06:10:25;;;;;;;6.85;0.60;;;;;;;;;;5280942;28;20017;-71
2023/03/24 06:12:56;;;;;;;6.68;0.60;;;;;;;;;;5281757;28;20021;-71
2023/03/24 06:15:27;;;;;;;6.18;0.98;;;;;;;;;;5281536;28;20024;-72
2023/03/24 06:17:59;;;;;;;6.35;0.60;;;;;;;;;;5280513;28;20071;-71
2023/03/24 06:20:31;;;;;;;9.50;1.20;;;;;;;;;;5281534;28;20463;-72
2023/03/24 06:23:02;;;;;;;6.10;0.70;;;;;;;;;;5281794;28;20039;-71
2023/03/24 06:25:34;;;;;;;5.85;0.60;;;;;;;;;;5280694;28;20005;-71
2023/03/24 06:28:08;;;;;;;8.70;0.60;;;;;;;;;;5281907;28;20067;-71
2023/03/24 06:30:42;;;;;;;4.47;0.52;;;;;;;;;;5280694;28;20127;-71
2023/03/24 06:33:14;;;;;;;5.35;0.75;;;;;;;;;;5281732;28;20103;-71
2023/03/24 06:35:45;;;;;;;5.55;0.90;;;;;;;;;;5281221;28;20450;-71
2023/03/24 06:38:17;;;;;;;7.05;0.80;;;;;;;;;;5281034;28;20490;-70
2023/03/24 06:40:48;;;;;;;5.72;0.70;;;;;;;;;;5281023;28;20083;-71
2023/03/24 06:43:19;;;;;;;6.15;0.75;;;;;;;;;;5281396;28;20463;-71
2023/03/24 06:45:50;;;;;;;7.00;0.93;;;;;;;;;;5280710;28;20536;-72
2023/03/24 06:48:22;;;;;;;7.75;0.70;;;;;;;;;;5281317;28;20107;-71
2023/03/24 06:50:54;;;;;;;7.55;0.73;;;;;;;;;;5280957;28;20484;-72
2023/03/24 06:53:25;;;;;;;7.13;1.00;;;;;;;;;;5280488;28;20451;-72
2023/03/24 06:55:56;;;;;;;6.47;0.70;;;;;;;;;;5281545;28;20035;-71
2023/03/24 06:58:27;;;;;;;8.60;1.20;;;;;;;;;;5280972;28;20016;-71
2023/03/24 07:01:00;;;;;;;6.30;0.70;;;;;;;;;;5281185;28;20269;-71
2023/03/24 07:03:31;;;;;;;6.93;0.90;;;;;;;;;;5280701;28;20024;-71
2023/03/24 07:06:03;;;;;;;7.05;0.70;;;;;;;;;;5281019;28;20409;-71
2023/03/24 07:08:35;;;;;;;5.25;0.70;;;;;;;;;;5281056;28;20451;-72
2023/03/24 07:11:08;;;;;;;6.65;0.80;;;;;;;;;;5281275;28;20027;-72
2023/03/24 07:13:39;;;;;;;5.68;0.93;;;;;;;;;;5280071;28;20050;-71
2023/03/24 07:16:11;;;;;;;7.05;0.80;;;;;;;;;;5281626;28;20040;-71
2023/03/24 07:18:42;;;;;;;5.68;0.52;;;;;;;;;;5280723;28;20017;-72
2023/03/24 07:21:13;;;;;;;6.83;0.90;;;;;;;;;;5280477;28;20025;-71
2023/03/24 07:23:44;;;;;;;4.80;0.80;;;;;;;;;;5280748;28;20696;-71
2023/03/24 07:26:16;;;;;;;4.78;0.70;;;;;;;;;;5273352;28;20050;-71
2023/03/24 07:28:47;;;;;;;6.82;1.08;;;;;;;;;;5264732;28;20116;-72
2023/03/24 07:31:21;;;;;;;7.82;1.02;;;;;;;;;;5269165;28;20027;-73
2023/03/24 07:33:52;;;;;;;6.25;0.93;;;;;;;;;;5282933;28;20016;-73
2023/03/24 07:36:23;;;;;;;3.63;0.60;;;;;;;;;;5282241;28;20025;-72
2023/03/24 07:38:55;;;;;;;8.50;0.93;;;;;;;;;;5280853;28;20365;-71
2023/03/24 07:41:28;;;;;;;8.95;1.10;;;;;;;;;;5282570;28;20027;-71
2023/03/24 07:43:59;;;;;;;5.70;0.77;;;;;;;;;;5284497;28;20390;-71
2023/03/24 07:46:30;;;;;;;5.53;0.90;;;;;;;;;;5282883;28;20099;-72
2023/03/24 07:49:02;;;;;;;6.38;0.77;;;;;;;;;;5283313;28;20267;-71
2023/03/24 07:51:33;;;;;;;8.50;0.65;;;;;;;;;;5284072;28;20057;-72
2023/03/24 07:54:04;;;;;;;4.77;0.90;;;;;;;;;;5284562;28;20028;-73
2023/03/24 07:56:35;;;;;;;5.80;0.80;;;;;;;;;;5283234;28;20270;-73
2023/03/24 07:59:08;;;;;;;6.00;0.70;;;;;;;;;;5284925;28;20036;-72
2023/03/24 08:01:39;;;;;;;8.45;0.85;;;;;;;;;;5283701;28;20324;-74
2023/03/24 08:04:11;;;;;;;5.30;0.80;;;;;;;;;;5283368;28;20028;-71
2023/03/24 08:06:43;;;;;;;7.75;0.80;;;;;;;;;;5283659;28;20263;-72
2023/03/24 08:09:16;;;;;;;5.07;0.70;;;;;;;;;;5283741;28;20475;-72
2023/03/24 08:11:47;;;;;;;10.43;1.17;;;;;;;;;;5283770;28;20023;-72
2023/03/24 08:14:18;;;;;;;8.07;1.17;;;;;;;;;;5284169;28;20021;-73
2023/03/24 08:16:49;;;;;;;5.33;0.57;;;;;;;;;;5282800;28;20493;-73
2023/03/24 08:19:21;;;;;;;9.57;1.00;;;;;;;;;;5283987;28;20637;-73
2023/03/24 08:21:52;;;;;;;6.43;1.10;;;;;;;;;;5283873;28;20020;-73
2023/03/24 08:24:24;;;;;;;8.52;1.20;;;;;;;;;;5282812;28;20024;-73
2023/03/24 08:26:57;;;;;;;6.00;0.60;;;;;;;;;;5283448;28;20032;-72
2023/03/24 08:29:28;;;;;;;5.68;0.80;;;;;;;;;;5283281;28;20102;-71
2023/03/24 08:32:00;;;;;;;6.57;0.87;;;;;;;;;;5282853;28;20346;-72
2023/03/24 08:34:31;;;;;;;7.55;0.60;;;;;;;;;;5283221;28;20741;-72
2023/03/24 08:37:03;;;;;;;3.88;0.52;;;;;;;;;;5282953;28;20088;-73
2023/03/24 08:39:34;;;;;;;4.45;0.73;;;;;;;;;;5283451;28;20082;-73
2023/03/24 08:42:05;;;;;;;6.97;1.08;;;;;;;;;;5283194;28;20028;-71
2023/03/24 08:44:37;;;;;;;4.93;1.00;;;;;;;;;;5282554;28;20024;-72
2023/03/24 08:47:08;;;;;;;6.40;0.90;;;;;;;;;;5283453;28;20020;-73
2023/03/24 08:49:39;;;;;;;7.03;1.02;;;;;;;;;;5282827;28;20787;-72
2023/03/24 08:52:10;;;;;;;6.70;0.90;;;;;;;;;;5282442;28;20048;-70
2023/03/24 08:54:41;;;;;;;9.88;1.00;;;;;;;;;;5282947;28;20880;-72
2023/03/24 08:57:13;;;;;;;4.93;1.08;;;;;;;;;;5283351;28;20025;-73
2023/03/24 08:59:45;;;;;;;8.10;0.98;;;;;;;;;;5281836;28;20059;-70
2023/03/24 09:02:16;;;;;;;5.20;0.60;;;;;;;;;;5283261;28;21046;-73
2023/03/24 09:04:52;;;;;;;9.02;0.60;;;;;;;;;;5282460;28;20059;-75
2023/03/24 09:07:23;;;;;;;4.63;0.77;;;;;;;;;;5282403;28;20023;-71
2023/03/24 09:09:55;;;;;;;5.90;0.90;;;;;;;;;;5282435;28;20020;-72
2023/03/24 09:12:26;;;;;;;6.50;0.80;;;;;;;;;;5281878;28;20554;-73
2023/03/24 09:14:57;;;;;;;8.93;1.02;;;;;;;;;;5282852;28;20020;-72
2023/03/24 09:17:28;;;;;;;5.20;0.80;;;;;;;;;;5282493;28;20443;-72
2023/03/24 09:20:00;;;;;;;5.33;0.63;;;;;;;;;;5281995;28;20019;-73
2023/03/24 09:22:31;;;;;;;5.63;0.52;;;;;;;;;;5282147;28;20702;-73
2023/03/24 09:25:02;;;;;;;5.43;0.93;;;;;;;;;;5282626;28;20021;-73
2023/03/24 09:27:33;;;;;;;7.47;0.70;;;;;;;;;;5280901;28;20019;-73
2023/03/24 09:30:05;;;;;;;7.13;0.80;;;;;;;;;;5282545;28;20028;-73
2023/03/24 09:32:37;;;;;;;4.68;0.60;;;;;;;;;;5281884;28;20017;-73
2023/03/24 09:35:08;;;;;;;7.22;0.68;;;;;;;;;;5281907;28;20028;-75
2023/03/24 09:37:41;;;;;;;5.57;0.90;;;;;;;;;;5281853;28;20082;-72
2023/03/24 09:40:22;;;;;;;5.50;0.73;;;;;;;;;;5282388;28;20466;-73
2023/03/24 09:43:02;;;;;;;7.00;0.60;;;;;;;;;;5282186;28;20041;-73
2023/03/24 09:45:36;;;;;;;5.45;0.90;;;;;;;;;;5281820;28;20017;-73
2023/03/24 09:48:12;;;;;;;4.97;0.60;;;;;;;;;;5281299;28;20036;-73
2023/03/24 09:50:57;;;;;;;5.53;0.70;;;;;;;;;;5281642;28;20025;-74
2023/03/24 09:53:47;;;;;;;5.07;0.90;;;;;;;;;;5281099;28;20128;-73
2023/03/24 09:56:19;;;;;;;6.20;0.88;;;;;;;;;;5281425;28;20061;-74
2023/03/24 09:59:09;;;;;;;4.97;0.60;;;;;;;;;;5282103;28;20383;-73
2023/03/24 10:01:40;;;;;;;4.95;0.63;;;;;;;;;;5281103;28;20718;-72
2023/03/24 10:04:13;;;;;;;6.10;0.73;;;;;;;;;;5282009;28;20039;-73
2023/03/24 10:06:45;;;;;;;8.68;0.70;;;;;;;;;;5281467;28;20035;-73
2023/03/24 10:09:27;;;;;;;5.63;0.70;;;;;;;;;;5281201;28;20035;-73
2023/03/24 10:12:01;;;;;;;7.15;0.80;;;;;;;;;;5282229;28;20020;-73
2023/03/24 10:14:35;;;;;;;6.65;0.65;;;;;;;;;;5281541;28;20024;-73
2023/03/24 10:17:24;;;;;;;6.95;0.70;;;;;;;;;;5281076;28;20017;-73
2023/03/24 10:19:55;;;;;;;;;;;;;;;;;;5282553;28;20048;-74
2023/03/24 10:22:31;;;;;;;5.30;0.83;;;;;;;;;;5280700;28;19952;-74
2023/03/24 10:25:12;;;;;;;6.82;0.70;;;;;;;;;;5282011;28;20286;-73
2023/03/24 10:27:56;;;;;;;8.43;1.05;;;;;;;;;;5281206;28;20025;-73
2023/03/24 10:30:28;;;;;;;4.25;0.50;;;;;;;;;;5280596;28;20020;-74
2023/03/24 10:33:00;;;;;;;5.50;0.70;;;;;;;;;;5281592;28;20099;-72
2023/03/24 10:35:40;;;;;;;4.47;0.70;;;;;;;;;;5281224;28;20431;-73
2023/03/24 10:38:17;;;;;;;4.00;0.60;;;;;;;;;;5281152;28;20025;-73
2023/03/24 10:40:48;;;;;;;5.57;0.60;;;;;;;;;;5281445;28;20028;-72
2023/03/24 10:43:20;;;;;;;2.47;0.40;;;;;;;;;;5281371;28;20086;-72
2023/03/24 10:45:52;;;;;;;4.47;0.65;;;;;;;;;;5280214;28;20091;-73
2023/03/24 10:48:33;;;;;;;7.43;0.73;;;;;;;;;;5281140;28;20033;-72
2023/03/24 10:51:04;;;;;;;7.13;0.73;;;;;;;;;;5280733;28;20041;-72
2023/03/24 10:53:36;;;;;;;4.20;0.40;;;;;;;;;;5281055;28;20023;-72
2023/03/24 10:56:07;;;;;;;5.47;0.52;;;;;;;;;;5281381;28;20028;-73
2023/03/24 10:58:40;;;;;;;6.63;0.88;;;;;;;;;;5280359;28;20111;-74
2023/03/24 11:01:21;;;;;;;5.13;0.60;;;;;;;;;;5281467;28;20070;-72
2023/03/24 11:03:58;;;;;;;3.75;0.40;;;;;;;;;;5281002;28;20035;-73
2023/03/24 11:06:30;;;;;;;5.55;0.75;;;;;;;;;;5283770;28;20084;-73
2023/03/24 11:09:09;;;;;;;3.17;0.50;;;;;;;;;;5284960;28;20127;-73
2023/03/24 11:11:40;;;;;;;;;;;;;;;;;;5284642;28;20074;-74
2023/03/24 11:14:21;;;;;;;3.20;0.50;;;;;;;;;;5285445;28;20351;-71
2023/03/24 11:17:00;;;;;;;7.18;0.95;;;;;;;;;;5284633;28;20020;-71
2023/03/24 11:19:35;;;;;;;5.35;0.60;;;;;;;;;;5283653;28;20024;-73
2023/03/24 11:22:09;;;;;;;4.40;0.75;;;;;;;;;;5284713;28;20472;-74
2023/03/24 11:24:40;;;;;;;6.43;0.80;;;;;;;;;;5284031;28;20078;-73
2023/03/24 11:27:13;;;;;;;3.88;0.65;;;;;;;;;;5284366;28;20464;-72
2023/03/24 11:29:48;;;;;;;5.25;0.70;;;;;;;;;;5283462;28;20032;-72
2023/03/24 11:32:26;;;;;;;3.22;0.50;;;;;;;;;;5282655;28;20491;-74
2023/03/24 11:35:17;;;;;;;6.35;0.90;;;;;;;;;;5282273;28;20043;-69
2023/03/24 11:37:48;;;;;;;3.65;0.50;;;;;;;;;;5282259;28;20016;-69
2023/03/24 11:40:21;;;;;;;5.15;0.77;;;;;;;;;;5281654;28;20107;-70
2023/03/24 11:43:02;;;;;;;3.83;0.40;;;;;;;;;;5282099;28;20390;-73
2023/03/24 11:45:36;;;;;;;4.97;0.50;;;;;;;;;;5282616;28;20060;-73
2023/03/24 11:48:34;;;;;;;5.28;0.80;;;;;;;;;;5283444;28;20025;-72
2023/03/24 11:51:07;;;;;;;5.70;0.60;;;;;;;;;;5283913;28;20037;-73
2023/03/24 11:53:46;;;;;;;4.50;0.50;;;;;;;;;;5283595;28;20039;-73
2023/03/24 11:56:36;;;;;;;4.85;0.73;;;;;;;;;;5283390;28;20104;-72
2023/03/24 11:59:20;;;;;;;2.05;0.30;;;;;;;;;;5284600;28;20487;-71
2023/03/24 12:01:58;;;;;;;2.47;0.50;;;;;;;;;;5283680;28;20362;-71
2023/03/24 12:04:44;;;;;;;4.57;0.40;;;;;;;;;;5283977;28;20108;-70
2023/03/24 12:07:18;;;;;;;3.72;0.50;;;;;;;;;;5284240;28;20016;-71
2023/03/24 12:09:49;;;;;;;2.75;0.45;;;;;;;;;;5282368;28;20017;-71
2023/03/24 12:12:43;;;;;;;2.58;0.38;;;;;;;;;;5282373;28;20028;-71
2023/03/24 12:15:33;;;;;;;1.85;0.30;;;;;;;;;;5262736;28;20025;-71
2023/03/24 12:18:19;;;;;;;1.80;0.30;;;;;;;;;;5283152;28;20040;-71
2023/03/24 12:20:55;;;;;;;1.58;0.17;;;;;;;;;;5283755;28;20070;-68
2023/03/24 12:23:35;;;;;;;2.65;0.20;;;;;;;;;;5282642;28;20056;-72
2023/03/24 12:26:13;;;;;;;2.15;0.10;;;;;;;;;;5283567;28;20100;-73
2023/03/24 12:28:51;;;;;;;2.42;0.10;;;;;;;;;;5283130;28;20036;-71
2023/03/24 12:31:27;;;;;;;0.40;0.03;;;;;;;;;;5281073;28;20024;-71
2023/03/24 12:34:14;;;;;;;1.00;0.00;;;;;;;;;;5281529;28;20467;-71
2023/03/24 12:36:54;;;;;;;0.82;0.10;;;;;;;;;;5280057;28;20020;-71
2023/03/24 12:39:28;;;;;;;0.95;0.10;;;;;;;;;;5280925;28;20012;-71
2023/03/24 12:41:59;;;;;;;0.65;0.08;;;;;;;;;;5281385;28;20050;-71
2023/03/24 12:44:48;;;;;;;1.17;0.10;;;;;;;;;;5279898;28;20116;-71
2023/03/24 12:47:36;;;;;;;1.98;0.20;;;;;;;;;;5283218;28;20061;-72
2023/03/24 12:50:19;;;;;;;1.60;0.20;;;;;;;;;;5283220;28;20021;-72
2023/03/24 12:52:53;;;;;;;1.75;0.20;;;;;;;;;;5282968;28;20539;-72
2023/03/24 12:55:30;;;;;;;2.65;0.20;;;;;;;;;;5282743;28;20040;-71
2023/03/24 12:58:10;;;;;;;1.92;0.20;;;;;;;;;;5282612;28;20066;-71
2023/03/24 13:00:45;;;;;;;1.77;0.20;;;;;;;;;;5282981;28;20371;-72
2023/03/24 13:03:38;;;;;;;1.30;0.20;;;;;;;;;;5282652;28;20029;-72
2023/03/24 13:06:12;;;;;;;1.30;0.20;;;;;;;;;;5282128;28;20051;-72
2023/03/24 13:08:48;;;;;;;2.72;0.40;;;;;;;;;;5282470;28;20050;-69
2023/03/24 13:11:22;;;;;;;1.80;0.30;;;;;;;;;;5282337;28;20043;-71
2023/03/24 13:13:55;;;;;;;1.20;0.20;;;;;;;;;;5282345;28;20066;-72
2023/03/24 13:16:28;;;;;;;2.67;0.20;;;;;;;;;;5281900;28;20027;-72
2023/03/24 13:19:01;;;;;;;2.80;0.30;;;;;;;;;;5281763;28;20024;-68
2023/03/24 13:21:34;;;;;;;2.78;0.20;;;;;;;;;;5281759;28;20142;-68
2023/03/24 13:24:06;;;;;;;2.58;0.38;;;;;;;;;;5282553;28;20040;-69
2023/03/24 13:26:52;;;;;;;2.20;0.20;;;;;;;;;;5280919;28;20017;-69
2023/03/24 13:29:43;;;;;;;2.35;0.30;;;;;;;;;;5282595;28;20469;-71
2023/03/24 13:32:23;;;;;;;2.25;0.30;;;;;;;;;;5271836;28;20025;-71
2023/03/24 13:34:54;;;;;;;4.72;0.80;;;;;;;;;;5279852;28;20032;-70
2023/03/24 13:37:34;;;;;;;4.32;0.60;;;;;;;;;;5281877;28;20016;-71
2023/03/24 13:40:20;;;;;;;2.78;0.50;;;;;;;;;;5281483;28;20067;-71
2023/03/24 13:42:58;;;;;;;2.50;0.40;;;;;;;;;;5281854;28;20487;-71
2023/03/24 13:45:46;;;;;;;5.28;0.50;;;;;;;;;;5281619;28;20013;-70
2023/03/24 13:48:30;;;;;;;5.43;0.80;;;;;;;;;;5281600;28;20027;-71
2023/03/24 13:51:01;;;;;;;3.95;0.60;;;;;;;;;;5282137;28;20101;-71
2023/03/24 13:53:38;;;;;;;5.28;0.60;;;;;;;;;;5280887;28;20017;-71
2023/03/24 13:56:10;;;;;;;5.07;0.52;;;;;;;;;;5282569;28;20626;-71
2023/03/24 13:59:08;;;;;;;4.60;0.60;;;;;;;;;;5281641;28;20063;-70
2023/03/24 14:01:40;;;;;;;3.13;0.40;;;;;;;;;;5272376;28;20032;-71
2023/03/24 14:04:18;;;;;;;3.45;0.50;;;;;;;;;;5282000;28;20036;-71
2023/03/24 14:06:50;;;;;;;4.05;0.35;;;;;;;;;;5281397;28;20398;-70
2023/03/24 14:09:28;;;;;;;2.53;0.43;;;;;;;;;;5280617;28;20054;-71
2023/03/24 14:12:02;;;;;;;4.63;0.40;;;;;;;;;;5281896;28;20123;-71
2023/03/24 14:14:35;;;;;;;3.63;0.60;;;;;;;;;;5280353;28;20286;-71
2023/03/24 14:17:06;;;;;;;2.63;0.40;;;;;;;;;;5282015;28;20024;-71
2023/03/24 14:19:40;;;;;;;3.28;0.40;;;;;;;;;;5281357;28;20577;-70
2023/03/24 14:22:11;;;;;;;2.83;0.30;;;;;;;;;;5280647;28;20111;-71
2023/03/24 14:24:44;;;;;;;1.65;0.30;;;;;;;;;;5280818;28;20400;-71
2023/03/24 14:27:36;;;;;;;1.42;0.30;;;;;;;;;;5281956;28;20021;-71
2023/03/24 14:30:10;;;;;;;2.00;0.32;;;;;;;;;;5281676;28;20107;-71
2023/03/24 14:32:43;;;;;;;3.35;0.40;;;;;;;;;;5281233;28;20102;-70
2023/03/24 14:35:34;;;;;;;2.15;0.30;;;;;;;;;;5281514;28;20020;-72
2023/03/24 14:38:14;;;;;;;2.33;0.30;;;;;;;;;;5280845;28;20051;-71
2023/03/24 14:40:50;;;;;;;3.90;0.30;;;;;;;;;;5284543;28;20489;-71
2023/03/24 14:43:27;;;;;;;3.15;0.30;;;;;;;;;;5284534;28;20036;-71
2023/03/24 14:46:02;;;;;;;1.85;0.25;;;;;;;;;;5285940;28;20372;-70
2023/03/24 14:48:39;;;;;;;2.70;0.28;;;;;;;;;;5285346;28;20012;-71
2023/03/24 14:51:15;;;;;;;2.67;0.30;;;;;;;;;;5284904;28;20040;-71
2023/03/24 14:53:46;;;;;;;1.58;0.30;;;;;;;;;;5285236;28;20063;-71
2023/03/24 14:56:20;;;;;;;2.60;0.30;;;;;;;;;;5285731;28;20060;-71
2023/03/24 14:58:54;;;;;;;1.27;0.30;;;;;;;;;;5284782;28;20344;-71
2023/03/24 15:01:29;;;;;;;4.88;0.40;;;;;;;;;;5285014;28;20100;-72
2023/03/24 15:04:03;;;;;;;2.70;0.35;;;;;;;;;;5284537;28;20125;-71
2023/03/24 15:06:55;;;;;;;2.55;0.40;;;;;;;;;;5284689;28;20043;-71
2023/03/24 15:09:26;;;;;;;3.17;0.43;;;;;;;;;;5284717;28;20032;-71
2023/03/24 15:11:59;;;;;;;2.53;0.43;;;;;;;;;;5278607;28;20082;-70
2023/03/24 15:14:31;;;;;;;5.22;0.75;;;;;;;;;;5283839;28;20020;-71
2023/03/24 15:17:05;;;;;;;3.85;0.60;;;;;;;;;;5284470;28;20090;-71
2023/03/24 15:19:36;;;;;;;6.15;0.65;;;;;;;;;;5283528;28;20021;-70
2023/03/24 15:22:11;;;;;;;4.65;0.50;;;;;;;;;;5284981;28;20454;-70
2023/03/24 15:24:45;;;;;;;5.68;0.90;;;;;;;;;;5283931;28;20040;-71
2023/03/24 15:27:19;;;;;;;2.10;0.32;;;;;;;;;;5283170;28;20016;-70
2023/03/24 15:29:54;;;;;;;3.40;0.45;;;;;;;;;;5276441;28;20020;-70